createdAt,value
2018-08-14T00:01:42.716Z,2.93
2018-08-14T00:04:11.281Z,3.90
2018-08-14T00:06:39.916Z,3.30
2018-08-14T00:09:08.609Z,2.87
2018-08-14T00:11:37.324Z,3.37
2018-08-14T00:14:06.026Z,3.80
2018-08-14T00:16:34.808Z,2.80
2018-08-14T00:19:03.342Z,3.30
2018-08-14T00:21:31.911Z,3.13
2018-08-14T00:24:00.616Z,4.00
2018-08-14T00:26:29.254Z,3.50
2018-08-14T00:28:57.802Z,3.87
2018-08-14T00:31:26.535Z,4.00
2018-08-14T00:33:55.191Z,3.17
2018-08-14T00:36:23.796Z,3.70
2018-08-14T00:38:52.385Z,3.77
2018-08-14T00:41:21.066Z,3.50
2018-08-14T00:43:49.684Z,3.10
2018-08-14T00:46:18.302Z,4.20
2018-08-14T00:48:46.852Z,3.60
2018-08-14T00:51:15.512Z,3.40
2018-08-14T00:53:44.148Z,3.60
2018-08-14T00:56:12.790Z,4.03
2018-08-14T00:58:41.363Z,3.73
2018-08-14T01:01:09.980Z,3.47
2018-08-14T01:03:38.710Z,3.37
2018-08-14T01:06:07.265Z,3.50
2018-08-14T01:08:35.881Z,3.23
2018-08-14T01:11:04.616Z,3.70
2018-08-14T01:13:33.237Z,3.80
2018-08-14T01:16:01.911Z,3.23
2018-08-14T01:18:30.664Z,3.87
2018-08-14T01:20:59.316Z,3.37
2018-08-14T01:23:28.000Z,3.20
2018-08-14T01:25:56.652Z,3.57
2018-08-14T01:28:25.330Z,3.50
2018-08-14T01:30:53.948Z,2.87
2018-08-14T01:33:22.581Z,3.20
2018-08-14T01:35:51.197Z,3.53
2018-08-14T01:38:19.741Z,2.80
2018-08-14T01:40:48.304Z,3.00
2018-08-14T01:43:16.984Z,3.03
2018-08-14T01:45:45.645Z,3.17
2018-08-14T01:48:14.194Z,3.13
2018-08-14T01:50:42.840Z,3.20
2018-08-14T01:53:11.504Z,3.07
2018-08-14T01:55:40.107Z,3.43
2018-08-14T01:58:08.720Z,3.40
2018-08-14T02:00:37.303Z,3.10
2018-08-14T02:03:06.148Z,3.13
2018-08-14T02:05:34.696Z,3.37
2018-08-14T02:08:03.286Z,3.00
2018-08-14T02:10:31.872Z,3.47
2018-08-14T02:13:00.523Z,3.33
2018-08-14T02:15:29.167Z,3.40
2018-08-14T02:17:57.817Z,3.23
2018-08-14T02:20:26.401Z,2.90
2018-08-14T02:22:55.958Z,3.00
2018-08-14T02:25:24.543Z,2.93
2018-08-14T02:27:53.397Z,2.90
2018-08-14T02:30:22.033Z,2.77
2018-08-14T02:32:50.687Z,2.50
2018-08-14T02:35:19.261Z,2.20
2018-08-14T02:37:47.849Z,1.93
2018-08-14T02:40:21.232Z,2.03
2018-08-14T02:42:50.709Z,2.97
2018-08-14T02:45:19.397Z,2.43
2018-08-14T02:47:48.088Z,2.23
2018-08-14T02:50:17.122Z,2.23
2018-08-14T02:52:45.738Z,2.10
2018-08-14T02:55:18.473Z,2.30
2018-08-14T02:57:47.168Z,2.30
2018-08-14T03:00:17.915Z,2.30
2018-08-14T03:02:46.625Z,3.03
2018-08-14T03:05:15.284Z,2.20
2018-08-14T03:07:43.853Z,2.00
2018-08-14T03:10:13.458Z,2.53
2018-08-14T03:12:42.682Z,2.23
2018-08-14T03:15:13.754Z,2.27
2018-08-14T03:17:42.455Z,2.53
2018-08-14T03:20:11.152Z,2.20
2018-08-14T03:22:39.829Z,2.50
2018-08-14T03:25:08.873Z,2.40
2018-08-14T03:27:37.395Z,2.50
2018-08-14T03:30:06.839Z,1.97
2018-08-14T03:32:35.466Z,1.87
2018-08-14T03:35:06.514Z,1.93
2018-08-14T03:37:35.108Z,2.60
2018-08-14T03:40:03.785Z,2.57
2018-08-14T03:42:32.323Z,2.33
2018-08-14T03:45:00.962Z,2.20
2018-08-14T03:47:29.603Z,2.53
2018-08-14T03:49:58.116Z,2.40
2018-08-14T03:52:26.732Z,2.43
2018-08-14T03:54:55.489Z,4.77
2018-08-14T03:57:24.090Z,2.50
2018-08-14T03:59:52.780Z,2.53
2018-08-14T04:02:21.430Z,2.90
2018-08-14T04:04:50.062Z,2.70
2018-08-14T04:07:18.698Z,2.53
2018-08-14T04:09:47.380Z,2.40
2018-08-14T04:12:16.009Z,2.30
2018-08-14T04:14:44.715Z,3.13
2018-08-14T04:17:13.405Z,2.50
2018-08-14T04:19:42.101Z,2.57
2018-08-14T04:22:10.759Z,2.90
2018-08-14T04:24:39.343Z,2.47
2018-08-14T04:27:08.011Z,2.23
2018-08-14T04:29:36.677Z,2.50
2018-08-14T04:32:05.384Z,2.30
2018-08-14T04:34:38.325Z,2.23
2018-08-14T04:37:07.035Z,1.97
2018-08-14T04:39:35.820Z,2.20
2018-08-14T04:42:04.549Z,2.33
2018-08-14T04:44:33.297Z,2.37
2018-08-14T04:47:01.991Z,3.10
2018-08-14T04:49:30.684Z,2.57
2018-08-14T04:51:59.419Z,2.10
2018-08-14T04:54:38.305Z,2.30
2018-08-14T04:57:07.100Z,2.40
2018-08-14T04:59:35.772Z,2.43
2018-08-14T05:02:04.498Z,2.10
2018-08-14T05:04:33.227Z,1.80
2018-08-14T05:07:01.900Z,2.90
2018-08-14T05:09:30.809Z,1.90
2018-08-14T05:11:59.376Z,1.90
2018-08-14T05:14:27.943Z,1.90
2018-08-14T05:16:56.630Z,2.23
2018-08-14T05:19:25.337Z,1.80
2018-08-14T05:21:53.933Z,2.40
2018-08-14T05:24:22.623Z,2.10
2018-08-14T05:26:51.209Z,2.23
2018-08-14T05:29:19.885Z,2.07
2018-08-14T05:31:48.461Z,1.60
2018-08-14T05:34:17.045Z,3.67
2018-08-14T05:36:45.668Z,2.90
2018-08-14T05:39:14.269Z,2.13
2018-08-14T05:41:42.859Z,2.23
2018-08-14T05:44:19.571Z,2.30
2018-08-14T05:46:48.704Z,2.80
2018-08-14T05:49:17.352Z,2.67
2018-08-14T05:51:46.837Z,2.30
2018-08-14T05:54:15.524Z,2.20
2018-08-14T05:56:45.212Z,2.00
2018-08-14T05:59:13.824Z,1.90
2018-08-14T06:01:42.984Z,2.47
2018-08-14T06:04:12.293Z,3.20
2018-08-14T06:06:41.035Z,2.83
2018-08-14T06:09:11.330Z,2.20
2018-08-14T06:11:40.466Z,2.27
2018-08-14T06:14:09.432Z,1.93
2018-08-14T06:16:38.286Z,1.87
2018-08-14T06:19:07.228Z,1.90
2018-08-14T06:21:35.908Z,2.43
2018-08-14T06:24:04.528Z,2.00
2018-08-14T06:26:33.224Z,1.80
2018-08-14T06:29:01.926Z,1.70
2018-08-14T06:31:30.544Z,1.70
2018-08-14T06:33:59.112Z,1.60
2018-08-14T06:36:27.787Z,1.80
2018-08-14T06:38:56.442Z,2.07
2018-08-14T06:41:25.031Z,1.70
2018-08-14T06:43:53.646Z,1.60
2018-08-14T06:46:22.306Z,2.40
2018-08-14T06:48:51.003Z,1.50
2018-08-14T06:51:19.673Z,1.70
2018-08-14T06:53:48.258Z,1.50
2018-08-14T06:56:16.863Z,1.90
2018-08-14T06:58:45.459Z,1.60
2018-08-14T07:01:14.119Z,1.57
2018-08-14T07:03:42.813Z,1.77
2018-08-14T07:06:11.401Z,2.20
2018-08-14T07:08:40.063Z,1.60
2018-08-14T07:11:08.723Z,1.77
2018-08-14T07:13:37.398Z,1.17
2018-08-14T07:16:06.052Z,2.00
2018-08-14T07:18:34.610Z,1.80
2018-08-14T07:21:03.266Z,1.57
2018-08-14T07:23:31.997Z,1.30
2018-08-14T07:26:00.581Z,1.80
2018-08-14T07:28:29.132Z,1.70
2018-08-14T07:30:57.766Z,1.67
2018-08-14T07:33:26.347Z,1.70
2018-08-14T07:35:54.906Z,1.80
2018-08-14T07:38:23.511Z,1.97
2018-08-14T07:40:52.150Z,2.03
2018-08-14T07:43:20.745Z,1.57
2018-08-14T07:45:49.377Z,1.60
2018-08-14T07:48:18.022Z,1.20
2018-08-14T07:50:46.600Z,1.67
2018-08-14T07:53:15.201Z,1.97
2018-08-14T07:55:43.807Z,1.83
2018-08-14T07:58:12.492Z,1.50
2018-08-14T08:00:41.143Z,1.57
2018-08-14T08:03:09.752Z,1.00
2018-08-14T08:05:38.325Z,1.37
2018-08-14T08:08:07.358Z,1.77
2018-08-14T08:10:35.968Z,1.37
2018-08-14T08:13:04.695Z,1.40
2018-08-14T08:15:33.308Z,1.17
2018-08-14T08:18:01.890Z,1.77
2018-08-14T08:20:35.447Z,1.07
2018-08-14T08:23:06.584Z,1.30
2018-08-14T08:25:36.181Z,1.23
2018-08-14T08:28:04.752Z,1.23
2018-08-14T08:30:33.374Z,1.23
2018-08-14T08:33:01.988Z,1.80
2018-08-14T08:35:30.588Z,1.20
2018-08-14T08:37:59.730Z,1.33
2018-08-14T08:40:28.833Z,1.40
2018-08-14T08:42:57.406Z,1.43
2018-08-14T08:45:26.127Z,1.73
2018-08-14T08:48:05.780Z,1.80
2018-08-14T08:50:34.460Z,1.10
2018-08-14T08:53:03.031Z,1.10
2018-08-14T08:55:31.606Z,1.57
2018-08-14T08:58:00.248Z,1.20
2018-08-14T09:00:28.837Z,0.97
2018-08-14T09:02:57.461Z,1.20
2018-08-14T09:05:26.143Z,1.40
2018-08-14T09:07:54.783Z,1.67
2018-08-14T09:10:23.413Z,1.17
2018-08-14T09:12:52.048Z,1.00
2018-08-14T09:15:20.610Z,1.57
2018-08-14T09:17:49.251Z,1.10
2018-08-14T09:20:17.913Z,1.37
2018-08-14T09:22:46.539Z,1.23
2018-08-14T09:25:16.133Z,1.50
2018-08-14T09:27:46.076Z,1.17
2018-08-14T09:30:16.255Z,1.13
2018-08-14T09:32:44.943Z,1.13
2018-08-14T09:35:14.801Z,1.20
2018-08-14T09:37:43.552Z,1.20
2018-08-14T09:40:17.179Z,1.50
2018-08-14T09:42:47.429Z,1.37
2018-08-14T09:45:16.269Z,1.30
2018-08-14T09:47:45.204Z,1.40
2018-08-14T09:50:17.024Z,1.40
2018-08-14T09:52:46.882Z,1.23
2018-08-14T09:55:16.570Z,1.40
2018-08-14T09:57:45.879Z,1.30
2018-08-14T10:00:31.250Z,1.17
2018-08-14T10:03:05.883Z,0.93
2018-08-14T10:05:39.746Z,1.07
2018-08-14T10:08:12.518Z,1.23
2018-08-14T10:10:41.109Z,1.43
2018-08-14T10:13:11.249Z,1.20
2018-08-14T10:15:40.348Z,1.47
2018-08-14T10:18:10.740Z,1.10
2018-08-14T10:20:39.376Z,1.43
2018-08-14T10:23:08.024Z,1.43
2018-08-14T10:25:36.730Z,1.50
2018-08-14T10:28:05.593Z,1.00
2018-08-14T10:30:34.285Z,1.30
2018-08-14T10:33:02.978Z,1.20
2018-08-14T10:35:31.623Z,1.70
2018-08-14T10:38:00.277Z,1.80
2018-08-14T10:40:28.904Z,1.50
2018-08-14T10:42:57.598Z,1.87
2018-08-14T10:45:26.272Z,1.90
2018-08-14T10:47:54.996Z,1.70
2018-08-14T10:50:24.086Z,1.70
2018-08-14T10:52:52.787Z,1.60
2018-08-14T10:55:21.545Z,1.80
2018-08-14T10:57:50.346Z,1.47
2018-08-14T11:00:23.091Z,1.73
2018-08-14T11:02:51.888Z,1.50
2018-08-14T11:05:21.342Z,1.70
2018-08-14T11:07:50.560Z,1.60
2018-08-14T11:10:25.380Z,1.83
2018-08-14T11:12:54.676Z,1.40
2018-08-14T11:15:23.383Z,1.23
2018-08-14T11:17:52.033Z,1.20
2018-08-14T11:20:22.103Z,1.47
2018-08-14T11:22:50.960Z,1.30
2018-08-14T11:25:19.595Z,1.40
2018-08-14T11:27:48.237Z,1.20
2018-08-14T11:30:25.639Z,1.30
2018-08-14T11:32:54.819Z,1.57
2018-08-14T11:35:24.574Z,1.30
2018-08-14T11:37:53.286Z,1.40
2018-08-14T11:40:21.925Z,1.43
2018-08-14T11:42:50.652Z,1.40
2018-08-14T11:45:23.428Z,1.57
2018-08-14T11:47:52.180Z,1.60
2018-08-14T11:50:21.456Z,1.70
2018-08-14T11:52:51.498Z,1.00
2018-08-14T11:55:20.876Z,1.40
2018-08-14T11:57:50.292Z,1.40
2018-08-14T12:00:26.461Z,1.30
2018-08-14T12:02:56.544Z,1.40
2018-08-14T12:05:25.452Z,1.57
2018-08-14T12:07:54.111Z,1.13
2018-08-14T12:10:23.287Z,1.50
2018-08-14T12:12:52.091Z,1.10
2018-08-14T12:15:20.677Z,1.43
2018-08-14T12:17:49.384Z,1.40
2018-08-14T12:20:23.498Z,1.60
2018-08-14T12:22:52.157Z,1.43
2018-08-14T12:25:21.343Z,1.10
2018-08-14T12:27:50.378Z,1.43
2018-08-14T12:30:20.904Z,1.30
2018-08-14T12:32:49.859Z,1.20
2018-08-14T12:35:18.497Z,1.10
2018-08-14T12:37:47.203Z,1.50
2018-08-14T12:40:16.287Z,1.37
2018-08-14T12:42:44.929Z,1.50
2018-08-14T12:45:15.787Z,1.50
2018-08-14T12:47:44.520Z,1.50
2018-08-14T12:50:14.713Z,1.57
2018-08-14T12:52:43.315Z,1.10
2018-08-14T12:55:12.832Z,1.30
2018-08-14T12:57:41.723Z,1.60
2018-08-14T13:00:21.058Z,2.00
2018-08-14T13:02:50.400Z,1.50
2018-08-14T13:05:19.325Z,1.30
2018-08-14T13:07:47.882Z,1.27
2018-08-14T13:10:16.534Z,1.37
2018-08-14T13:12:45.188Z,1.47
2018-08-14T13:15:14.565Z,1.50
2018-08-14T13:17:47.616Z,1.30
2018-08-14T13:20:16.231Z,1.47
2018-08-14T13:22:44.811Z,1.20
2018-08-14T13:25:13.601Z,1.30
2018-08-14T13:27:42.143Z,1.27
2018-08-14T13:30:13.018Z,1.17
2018-08-14T13:32:41.953Z,1.57
2018-08-14T13:35:10.758Z,1.50
2018-08-14T13:37:39.351Z,1.50
2018-08-14T13:40:09.508Z,1.60
2018-08-14T13:42:38.601Z,1.43
2018-08-14T13:45:08.794Z,1.70
2018-08-14T13:47:37.722Z,1.40
2018-08-14T13:50:07.660Z,1.33
2018-08-14T13:52:36.488Z,2.27
2018-08-14T13:55:06.808Z,1.60
2018-08-14T13:57:35.381Z,1.40
2018-08-14T14:00:06.316Z,1.10
2018-08-14T14:02:34.985Z,1.10
2018-08-14T14:05:03.674Z,2.03
2018-08-14T14:07:32.270Z,1.33
2018-08-14T14:10:00.898Z,1.37
2018-08-14T14:12:29.545Z,1.83
2018-08-14T14:14:58.254Z,1.00
2018-08-14T14:17:26.856Z,1.80
2018-08-14T14:19:55.606Z,1.43
2018-08-14T14:22:24.246Z,1.43
2018-08-14T14:24:52.919Z,1.30
2018-08-14T14:27:21.568Z,1.23
2018-08-14T14:29:50.213Z,1.50
2018-08-14T14:32:18.875Z,1.30
2018-08-14T14:34:48.533Z,1.60
2018-08-14T14:37:17.196Z,1.50
2018-08-14T14:39:45.945Z,1.53
2018-08-14T14:42:14.573Z,1.47
2018-08-14T14:44:43.247Z,1.20
2018-08-14T14:47:11.826Z,1.60
2018-08-14T14:49:40.497Z,1.60
2018-08-14T14:52:09.077Z,1.20
2018-08-14T14:54:37.808Z,1.43
2018-08-14T14:57:06.916Z,1.50
2018-08-14T14:59:35.680Z,1.20
2018-08-14T15:02:04.317Z,1.77
2018-08-14T15:04:32.938Z,2.00
2018-08-14T15:07:01.502Z,2.10
2018-08-14T15:09:30.186Z,1.60
2018-08-14T15:11:58.773Z,1.57
2018-08-14T15:14:27.431Z,1.57
2018-08-14T15:16:56.090Z,1.23
2018-08-14T15:19:24.752Z,1.57
2018-08-14T15:21:53.391Z,1.33
2018-08-14T15:24:22.013Z,1.70
2018-08-14T15:26:50.688Z,1.20
2018-08-14T15:29:20.224Z,1.80
2018-08-14T15:31:50.701Z,1.60
2018-08-14T15:34:23.040Z,1.17
2018-08-14T15:36:54.640Z,1.40
2018-08-14T15:39:24.004Z,1.57
2018-08-14T15:41:52.848Z,1.50
2018-08-14T15:44:21.864Z,1.37
2018-08-14T15:46:50.545Z,1.73
2018-08-14T15:49:19.272Z,1.40
2018-08-14T15:51:47.862Z,1.67
2018-08-14T15:54:16.757Z,1.43
2018-08-14T15:56:45.785Z,1.27
2018-08-14T15:59:14.927Z,1.20
2018-08-14T16:01:44.024Z,1.20
2018-08-14T16:04:13.472Z,1.30
2018-08-14T16:06:43.258Z,1.23
2018-08-14T16:09:14.129Z,1.03
2018-08-14T16:11:43.244Z,1.40
2018-08-14T16:14:12.177Z,1.17
2018-08-14T16:16:40.969Z,1.40
2018-08-14T16:19:10.498Z,1.50
2018-08-14T16:21:39.482Z,1.67
2018-08-14T16:24:08.405Z,1.60
2018-08-14T16:26:37.039Z,1.90
2018-08-14T16:29:06.146Z,2.30
2018-08-14T16:31:34.718Z,1.57
2018-08-14T16:34:03.461Z,1.53
2018-08-14T16:36:32.462Z,1.67
2018-08-14T16:39:01.078Z,1.73
2018-08-14T16:41:29.689Z,1.33
2018-08-14T16:43:58.344Z,1.73
2018-08-14T16:46:26.995Z,1.40
2018-08-14T16:48:55.637Z,1.87
2018-08-14T16:51:24.288Z,1.40
2018-08-14T16:53:52.959Z,2.30
2018-08-14T16:56:21.616Z,2.80
2018-08-14T16:58:50.305Z,3.50
2018-08-14T17:01:19.095Z,3.50
2018-08-14T17:03:47.746Z,2.50
2018-08-14T17:06:19.417Z,1.90
2018-08-14T17:08:48.293Z,1.57
2018-08-14T17:11:16.936Z,1.30
2018-08-14T17:13:45.608Z,1.40
2018-08-14T17:16:14.371Z,1.77
2018-08-14T17:18:43.210Z,2.00
2018-08-14T17:21:10.587Z,1.93
2018-08-14T17:23:39.216Z,2.03
2018-08-14T17:26:07.855Z,1.77
2018-08-14T17:28:36.560Z,2.00
2018-08-14T17:31:05.297Z,1.77
2018-08-14T17:33:33.889Z,2.13
2018-08-14T17:36:02.477Z,2.20
2018-08-14T17:38:31.066Z,2.53
2018-08-14T17:40:59.678Z,2.13
2018-08-14T17:43:28.269Z,2.40
2018-08-14T17:45:56.912Z,1.83
2018-08-14T17:48:25.442Z,2.00
2018-08-14T17:50:54.153Z,2.20
2018-08-14T17:53:22.876Z,2.17
2018-08-14T17:55:51.503Z,2.00
2018-08-14T17:58:20.170Z,2.30
2018-08-14T18:00:48.827Z,2.17
2018-08-14T18:03:17.449Z,2.20
2018-08-14T18:05:46.081Z,2.00
2018-08-14T18:08:14.880Z,2.40
2018-08-14T18:10:43.554Z,2.17
2018-08-14T18:13:12.181Z,1.70
2018-08-14T18:15:40.841Z,2.07
2018-08-14T18:18:09.414Z,2.47
2018-08-14T18:20:38.082Z,2.70
2018-08-14T18:23:06.721Z,2.90
2018-08-14T18:25:35.323Z,2.30
2018-08-14T18:28:04.017Z,2.90
2018-08-14T18:30:32.666Z,2.57
2018-08-14T18:33:01.324Z,2.70
2018-08-14T18:35:29.842Z,2.73
2018-08-14T18:37:58.541Z,3.27
2018-08-14T18:40:27.118Z,2.80
2018-08-14T18:42:55.861Z,3.10
2018-08-14T18:45:24.482Z,2.87
2018-08-14T18:47:53.105Z,2.93
2018-08-14T18:50:21.723Z,2.90
2018-08-14T18:52:50.362Z,2.90
2018-08-14T18:55:19.641Z,3.33
2018-08-14T18:57:49.139Z,3.17
2018-08-14T19:00:23.289Z,3.10
2018-08-14T19:02:52.802Z,3.20
2018-08-14T19:05:21.971Z,2.97
2018-08-14T19:07:50.672Z,2.87
2018-08-14T19:10:20.781Z,3.10
2018-08-14T19:12:50.432Z,2.60
2018-08-14T19:15:24.129Z,3.27
2018-08-14T19:17:52.819Z,4.00
2018-08-14T19:20:21.518Z,5.50
2018-08-14T19:22:50.168Z,3.07
2018-08-14T19:25:18.769Z,3.10
2018-08-14T19:27:47.487Z,2.87
2018-08-14T19:30:16.098Z,2.93
2018-08-14T19:32:44.863Z,2.87
2018-08-14T19:35:14.852Z,2.90
2018-08-14T19:37:43.525Z,2.90
2018-08-14T19:40:22.016Z,3.40
2018-08-14T19:42:50.857Z,3.30
2018-08-14T19:45:19.476Z,3.20
2018-08-14T19:47:48.508Z,3.00
2018-08-14T19:50:18.345Z,2.97
2018-08-14T19:52:47.099Z,2.90
2018-08-14T19:55:18.127Z,3.50
2018-08-14T19:57:48.054Z,2.93
2018-08-14T20:00:23.278Z,2.60
2018-08-14T20:02:52.307Z,3.03
2018-08-14T20:05:20.892Z,2.93
2018-08-14T20:07:49.741Z,3.53
2018-08-14T20:10:18.362Z,3.67
2018-08-14T20:12:46.989Z,4.30
2018-08-14T20:15:22.515Z,3.50
2018-08-14T20:17:51.144Z,3.53
2018-08-14T20:20:19.787Z,3.40
2018-08-14T20:22:48.489Z,3.17
2018-08-14T20:25:17.115Z,3.60
2018-08-14T20:27:45.770Z,3.87
2018-08-14T20:30:16.649Z,3.50
2018-08-14T20:32:45.384Z,3.60
2018-08-14T20:35:15.129Z,3.63
2018-08-14T20:37:44.680Z,3.97
2018-08-14T20:40:15.604Z,3.67
2018-08-14T20:42:44.247Z,4.17
2018-08-14T20:45:13.599Z,3.87
2018-08-14T20:47:42.659Z,3.83
2018-08-14T20:50:14.304Z,4.30
2018-08-14T20:52:43.259Z,4.10
2018-08-14T20:55:12.626Z,3.97
2018-08-14T20:57:41.975Z,3.93
2018-08-14T21:00:17.913Z,4.60
2018-08-14T21:02:46.558Z,3.70
2018-08-14T21:05:15.179Z,3.97
2018-08-14T21:07:44.553Z,4.20
2018-08-14T21:10:13.294Z,3.90
2018-08-14T21:12:43.051Z,3.87
2018-08-14T21:15:14.082Z,3.60
2018-08-14T21:17:43.878Z,4.13
2018-08-14T21:20:14.528Z,3.80
2018-08-14T21:22:43.704Z,4.00
2018-08-14T21:25:12.373Z,4.40
2018-08-14T21:27:41.039Z,4.57
2018-08-14T21:30:12.039Z,5.10
2018-08-14T21:32:40.900Z,4.30
2018-08-14T21:35:13.320Z,4.67
2018-08-14T21:37:41.980Z,4.70
2018-08-14T21:40:12.642Z,4.80
2018-08-14T21:42:41.818Z,4.20
2018-08-14T21:45:12.476Z,5.00
2018-08-14T21:47:41.178Z,5.07
2018-08-14T21:50:09.774Z,4.60
2018-08-14T21:52:38.819Z,4.90
2018-08-14T21:55:09.148Z,5.60
2018-08-14T21:57:38.026Z,4.77
2018-08-14T22:00:11.244Z,4.50
2018-08-14T22:02:39.804Z,4.60
2018-08-14T22:05:08.433Z,4.47
2018-08-14T22:07:37.026Z,4.80
2018-08-14T22:10:06.031Z,5.20
2018-08-14T22:12:34.653Z,4.80
2018-08-14T22:15:03.348Z,4.17
2018-08-14T22:17:32.197Z,4.57
2018-08-14T22:20:00.874Z,4.57
2018-08-14T22:22:29.456Z,4.70
2018-08-14T22:24:58.289Z,5.00
2018-08-14T22:27:26.932Z,4.50
2018-08-14T22:29:55.587Z,4.47
2018-08-14T22:32:24.173Z,4.63
2018-08-14T22:34:52.825Z,4.50
2018-08-14T22:37:21.401Z,4.80
2018-08-14T22:39:50.064Z,4.30
2018-08-14T22:42:18.611Z,4.73
2018-08-14T22:44:47.212Z,5.00
2018-08-14T22:47:15.832Z,5.10
2018-08-14T22:49:44.480Z,5.57
2018-08-14T22:52:13.107Z,5.20
2018-08-14T22:54:41.890Z,4.50
2018-08-14T22:57:10.420Z,4.77
2018-08-14T22:59:39.107Z,4.57
2018-08-14T23:02:07.706Z,5.20
2018-08-14T23:04:36.390Z,4.73
2018-08-14T23:07:05.037Z,5.60
2018-08-14T23:09:33.655Z,4.00
2018-08-14T23:12:02.266Z,4.27
2018-08-14T23:14:30.884Z,4.97
2018-08-14T23:16:59.482Z,4.30
2018-08-14T23:19:28.248Z,4.60
2018-08-14T23:21:57.224Z,4.00
2018-08-14T23:24:26.049Z,4.10
2018-08-14T23:26:55.011Z,4.33
2018-08-14T23:29:23.805Z,4.50
2018-08-14T23:31:52.678Z,4.43
2018-08-14T23:34:21.485Z,4.77
2018-08-14T23:36:50.333Z,4.40
2018-08-14T23:39:19.077Z,4.40
2018-08-14T23:41:47.636Z,5.10
2018-08-14T23:44:16.246Z,4.57
2018-08-14T23:46:44.929Z,4.60
2018-08-14T23:49:13.535Z,4.30
2018-08-14T23:51:42.157Z,4.53
2018-08-14T23:54:10.791Z,4.63
2018-08-14T23:56:39.402Z,4.90
2018-08-14T23:59:08.077Z,5.20
